sensor_id;sensor_type;location;lat;lon;timestamp;temperature;humidity
72650;SHT31;61467;50.674;4.618;2023-05-16T00:15:26;10.61;67.62
72650;SHT31;61467;50.674;4.618;2023-05-16T00:31:44;10.29;69.34
72650;SHT31;61467;50.674;4.618;2023-05-16T00:37:50;10.21;69.49
72650;SHT31;61467;50.674;4.618;2023-05-16T00:44:28;10.21;69.70
72650;SHT31;61467;50.674;4.618;2023-05-16T01:20:08;9.81;70.68
72650;SHT31;61467;50.674;4.618;2023-05-16T02:01:29;9.52;71.46
72650;SHT31;61467;50.674;4.618;2023-05-16T02:04:46;9.41;71.89
72650;SHT31;61467;50.674;4.618;2023-05-16T02:07:50;9.23;72.01
72650;SHT31;61467;50.674;4.618;2023-05-16T02:10:59;9.44;71.81
72650;SHT31;61467;50.674;4.618;2023-05-16T02:14:08;9.52;71.11
72650;SHT31;61467;50.674;4.618;2023-05-16T02:26:50;9.55;71.27
72650;SHT31;61467;50.674;4.618;2023-05-16T02:29:54;9.63;71.09
72650;SHT31;61467;50.674;4.618;2023-05-16T02:33:01;9.56;71.10
72650;SHT31;61467;50.674;4.618;2023-05-16T02:36:11;9.46;71.22
72650;SHT31;61467;50.674;4.618;2023-05-16T02:39:21;9.55;71.38
72650;SHT31;61467;50.674;4.618;2023-05-16T02:42:24;9.59;70.75
72650;SHT31;61467;50.674;4.618;2023-05-16T02:45:28;9.63;71.06
72650;SHT31;61467;50.674;4.618;2023-05-16T02:48:26;9.69;71.28
72650;SHT31;61467;50.674;4.618;2023-05-16T03:04:11;9.55;71.62
72650;SHT31;61467;50.674;4.618;2023-05-16T03:07:26;9.59;71.47
72650;SHT31;61467;50.674;4.618;2023-05-16T03:10:25;8.94;72.28
72650;SHT31;61467;50.674;4.618;2023-05-16T03:13:31;9.24;72.89
72650;SHT31;61467;50.674;4.618;2023-05-16T04:44:17;9.30;71.72
72650;SHT31;61467;50.674;4.618;2023-05-16T04:59:33;9.32;72.36
72650;SHT31;61467;50.674;4.618;2023-05-16T05:02:37;9.25;72.26
72650;SHT31;61467;50.674;4.618;2023-05-16T05:05:34;9.45;72.48
72650;SHT31;61467;50.674;4.618;2023-05-16T05:08:44;9.49;72.45
72650;SHT31;61467;50.674;4.618;2023-05-16T05:11:51;9.68;71.75
72650;SHT31;61467;50.674;4.618;2023-05-16T05:14:56;9.75;71.34
72650;SHT31;61467;50.674;4.618;2023-05-16T05:17:54;9.83;70.99
72650;SHT31;61467;50.674;4.618;2023-05-16T05:20:46;9.92;70.80
72650;SHT31;61467;50.674;4.618;2023-05-16T05:23:46;9.83;70.89
72650;SHT31;61467;50.674;4.618;2023-05-16T05:29:59;9.81;70.91
72650;SHT31;61467;50.674;4.618;2023-05-16T05:36:06;10.02;69.81
72650;SHT31;61467;50.674;4.618;2023-05-16T05:39:04;9.87;70.10
72650;SHT31;61467;50.674;4.618;2023-05-16T05:45:00;9.51;71.27
72650;SHT31;61467;50.674;4.618;2023-05-16T05:51:08;9.66;71.89
72650;SHT31;61467;50.674;4.618;2023-05-16T05:54:14;9.63;71.63
72650;SHT31;61467;50.674;4.618;2023-05-16T06:03:45;10.04;71.01
72650;SHT31;61467;50.674;4.618;2023-05-16T06:10:10;10.72;68.98
72650;SHT31;61467;50.674;4.618;2023-05-16T06:16:13;10.85;67.87
72650;SHT31;61467;50.674;4.618;2023-05-16T06:19:36;11.01;67.44
72650;SHT31;61467;50.674;4.618;2023-05-16T06:32:33;10.96;66.86
72650;SHT31;61467;50.674;4.618;2023-05-16T06:35:38;11.22;66.45
72650;SHT31;61467;50.674;4.618;2023-05-16T06:41:40;11.29;65.34
72650;SHT31;61467;50.674;4.618;2023-05-16T06:47:42;11.25;65.77
72650;SHT31;61467;50.674;4.618;2023-05-16T06:50:53;11.23;65.06
72650;SHT31;61467;50.674;4.618;2023-05-16T06:56:52;11.27;63.42
72650;SHT31;61467;50.674;4.618;2023-05-16T07:09:00;12.05;60.57
72650;SHT31;61467;50.674;4.618;2023-05-16T07:15:20;12.22;59.74
72650;SHT31;61467;50.674;4.618;2023-05-16T07:21:33;11.40;61.52
72650;SHT31;61467;50.674;4.618;2023-05-16T07:24:35;11.29;62.09
72650;SHT31;61467;50.674;4.618;2023-05-16T07:30:52;11.18;63.45
72650;SHT31;61467;50.674;4.618;2023-05-16T07:33:59;11.40;62.88
72650;SHT31;61467;50.674;4.618;2023-05-16T07:37:03;11.09;62.75
72650;SHT31;61467;50.674;4.618;2023-05-16T07:39:47;11.18;62.31
72650;SHT31;61467;50.674;4.618;2023-05-16T07:42:59;11.32;62.16
72650;SHT31;61467;50.674;4.618;2023-05-16T07:46:00;11.42;62.32
72650;SHT31;61467;50.674;4.618;2023-05-16T07:49:01;11.67;62.28
72650;SHT31;61467;50.674;4.618;2023-05-16T07:52:00;11.40;61.75
72650;SHT31;61467;50.674;4.618;2023-05-16T08:02:17;11.23;60.03
72650;SHT31;61467;50.674;4.618;2023-05-16T08:11:33;12.20;58.43
72650;SHT31;61467;50.674;4.618;2023-05-16T08:14:28;12.20;57.39
72650;SHT31;61467;50.674;4.618;2023-05-16T08:17:33;11.94;56.58
72650;SHT31;61467;50.674;4.618;2023-05-16T08:20:46;11.71;57.51
72650;SHT31;61467;50.674;4.618;2023-05-16T08:23:40;11.87;56.96
72650;SHT31;61467;50.674;4.618;2023-05-16T08:26:44;11.84;57.20
72650;SHT31;61467;50.674;4.618;2023-05-16T08:29:40;11.91;56.48
72650;SHT31;61467;50.674;4.618;2023-05-16T08:32:55;12.10;55.73
72650;SHT31;61467;50.674;4.618;2023-05-16T08:35:54;12.41;55.08
72650;SHT31;61467;50.674;4.618;2023-05-16T08:38:55;12.43;54.83
72650;SHT31;61467;50.674;4.618;2023-05-16T08:45:09;12.39;55.20
72650;SHT31;61467;50.674;4.618;2023-05-16T08:48:17;12.28;55.35
72650;SHT31;61467;50.674;4.618;2023-05-16T08:51:32;12.29;56.34
72650;SHT31;61467;50.674;4.618;2023-05-16T08:57:52;12.76;54.06
72650;SHT31;61467;50.674;4.618;2023-05-16T09:24:24;13.48;51.78
72650;SHT31;61467;50.674;4.618;2023-05-16T09:27:29;13.54;51.96
72650;SHT31;61467;50.674;4.618;2023-05-16T09:30:31;13.18;52.53
72650;SHT31;61467;50.674;4.618;2023-05-16T09:33:35;13.21;53.73
72650;SHT31;61467;50.674;4.618;2023-05-16T09:39:47;12.83;54.14
72650;SHT31;61467;50.674;4.618;2023-05-16T09:42:55;13.06;53.93
72650;SHT31;61467;50.674;4.618;2023-05-16T09:46:02;13.15;54.15
72650;SHT31;61467;50.674;4.618;2023-05-16T09:49:03;13.00;55.15
72650;SHT31;61467;50.674;4.618;2023-05-16T09:52:01;13.75;55.53
72650;SHT31;61467;50.674;4.618;2023-05-16T09:55:06;13.45;52.92
72650;SHT31;61467;50.674;4.618;2023-05-16T09:58:06;13.81;55.02
72650;SHT31;61467;50.674;4.618;2023-05-16T10:01:11;13.69;53.39
72650;SHT31;61467;50.674;4.618;2023-05-16T10:14:03;14.38;52.59
72650;SHT31;61467;50.674;4.618;2023-05-16T10:17:13;14.37;51.94
72650;SHT31;61467;50.674;4.618;2023-05-16T10:20:14;14.38;50.43
72650;SHT31;61467;50.674;4.618;2023-05-16T10:23:26;14.24;48.99
72650;SHT31;61467;50.674;4.618;2023-05-16T10:26:19;14.47;51.25
72650;SHT31;61467;50.674;4.618;2023-05-16T10:29:30;14.45;48.51
72650;SHT31;61467;50.674;4.618;2023-05-16T10:32:43;14.38;49.93
72650;SHT31;61467;50.674;4.618;2023-05-16T10:38:33;14.36;50.17
72650;SHT31;61467;50.674;4.618;2023-05-16T10:44:55;14.24;50.11
72650;SHT31;61467;50.674;4.618;2023-05-16T10:51:42;14.71;48.08
72650;SHT31;61467;50.674;4.618;2023-05-16T10:54:42;14.99;48.85
72650;SHT31;61467;50.674;4.618;2023-05-16T10:57:35;15.28;46.96
72650;SHT31;61467;50.674;4.618;2023-05-16T11:03:37;15.39;45.91
72650;SHT31;61467;50.674;4.618;2023-05-16T11:31:10;15.44;43.63
72650;SHT31;61467;50.674;4.618;2023-05-16T11:34:14;15.67;44.95
72650;SHT31;61467;50.674;4.618;2023-05-16T11:53:59;15.63;44.99
72650;SHT31;61467;50.674;4.618;2023-05-16T12:06:22;15.11;47.07
72650;SHT31;61467;50.674;4.618;2023-05-16T12:12:34;15.44;47.80
72650;SHT31;61467;50.674;4.618;2023-05-16T12:30:17;15.47;47.16
72650;SHT31;61467;50.674;4.618;2023-05-16T12:33:20;15.53;47.46
72650;SHT31;61467;50.674;4.618;2023-05-16T12:39:23;15.73;46.78
72650;SHT31;61467;50.674;4.618;2023-05-16T12:42:12;15.90;46.40
72650;SHT31;61467;50.674;4.618;2023-05-16T12:45:21;16.42;46.97
72650;SHT31;61467;50.674;4.618;2023-05-16T12:48:19;16.40;44.30
72650;SHT31;61467;50.674;4.618;2023-05-16T12:51:27;16.61;44.88
72650;SHT31;61467;50.674;4.618;2023-05-16T12:54:20;16.38;45.76
72650;SHT31;61467;50.674;4.618;2023-05-16T12:57:15;16.31;45.86
72650;SHT31;61467;50.674;4.618;2023-05-16T13:00:04;15.67;46.58
72650;SHT31;61467;50.674;4.618;2023-05-16T13:03:06;15.98;47.51
72650;SHT31;61467;50.674;4.618;2023-05-16T13:06:04;16.10;46.53
72650;SHT31;61467;50.674;4.618;2023-05-16T13:12:04;15.47;47.15
72650;SHT31;61467;50.674;4.618;2023-05-16T13:14:56;15.33;47.22
72650;SHT31;61467;50.674;4.618;2023-05-16T13:21:18;15.69;46.82
72650;SHT31;61467;50.674;4.618;2023-05-16T13:24:22;15.93;46.67
72650;SHT31;61467;50.674;4.618;2023-05-16T13:27:32;16.28;44.41
72650;SHT31;61467;50.674;4.618;2023-05-16T13:30:33;16.36;45.92
72650;SHT31;61467;50.674;4.618;2023-05-16T13:33:34;16.14;44.63
72650;SHT31;61467;50.674;4.618;2023-05-16T13:40:14;16.14;44.02
72650;SHT31;61467;50.674;4.618;2023-05-16T13:43:24;16.01;45.53
72650;SHT31;61467;50.674;4.618;2023-05-16T13:49:38;15.90;45.38
72650;SHT31;61467;50.674;4.618;2023-05-16T13:59:09;16.51;46.47
72650;SHT31;61467;50.674;4.618;2023-05-16T14:32:06;15.70;44.72
72650;SHT31;61467;50.674;4.618;2023-05-16T14:35:04;15.84;45.58
72650;SHT31;61467;50.674;4.618;2023-05-16T14:38:08;16.11;45.63
72650;SHT31;61467;50.674;4.618;2023-05-16T14:40:57;16.10;44.85
72650;SHT31;61467;50.674;4.618;2023-05-16T14:44:04;15.98;46.11
72650;SHT31;61467;50.674;4.618;2023-05-16T14:53:17;16.99;44.37
72650;SHT31;61467;50.674;4.618;2023-05-16T15:20:03;16.41;45.34
72650;SHT31;61467;50.674;4.618;2023-05-16T15:22:57;16.80;43.29
72650;SHT31;61467;50.674;4.618;2023-05-16T15:28:33;16.49;45.66
72650;SHT31;61467;50.674;4.618;2023-05-16T15:31:13;16.31;43.99
72650;SHT31;61467;50.674;4.618;2023-05-16T15:34:03;16.35;44.02
72650;SHT31;61467;50.674;4.618;2023-05-16T15:36:35;16.31;43.99
72650;SHT31;61467;50.674;4.618;2023-05-16T15:39:22;16.41;44.45
72650;SHT31;61467;50.674;4.618;2023-05-16T15:41:54;15.90;44.34
72650;SHT31;61467;50.674;4.618;2023-05-16T15:44:30;15.93;44.67
72650;SHT31;61467;50.674;4.618;2023-05-16T15:47:22;15.93;44.81
72650;SHT31;61467;50.674;4.618;2023-05-16T15:49:56;16.75;43.88
72650;SHT31;61467;50.674;4.618;2023-05-16T15:52:38;17.24;44.22
72650;SHT31;61467;50.674;4.618;2023-05-16T15:55:25;17.75;42.06
72650;SHT31;61467;50.674;4.618;2023-05-16T15:58:03;17.85;40.38
72650;SHT31;61467;50.674;4.618;2023-05-16T16:00:46;17.65;41.01
72650;SHT31;61467;50.674;4.618;2023-05-16T16:03:26;17.44;41.52
72650;SHT31;61467;50.674;4.618;2023-05-16T16:06:04;17.82;42.42
72650;SHT31;61467;50.674;4.618;2023-05-16T16:08:50;18.01;39.77
72650;SHT31;61467;50.674;4.618;2023-05-16T16:11:34;18.10;39.91
72650;SHT31;61467;50.674;4.618;2023-05-16T16:14:25;17.77;42.46
72650;SHT31;61467;50.674;4.618;2023-05-16T16:16:54;17.33;40.55
72650;SHT31;61467;50.674;4.618;2023-05-16T16:19:21;17.31;41.72
72650;SHT31;61467;50.674;4.618;2023-05-16T16:21:48;17.62;40.73
72650;SHT31;61467;50.674;4.618;2023-05-16T16:24:21;17.78;41.35
72650;SHT31;61467;50.674;4.618;2023-05-16T16:26:56;17.93;39.32
72650;SHT31;61467;50.674;4.618;2023-05-16T16:29:32;17.68;39.26
72650;SHT31;61467;50.674;4.618;2023-05-16T16:32:06;17.81;39.60
72650;SHT31;61467;50.674;4.618;2023-05-16T16:34:54;17.82;40.81
72650;SHT31;61467;50.674;4.618;2023-05-16T16:37:39;17.35;38.43
72650;SHT31;61467;50.674;4.618;2023-05-16T16:40:26;17.26;41.05
72650;SHT31;61467;50.674;4.618;2023-05-16T16:43:20;17.44;41.02
72650;SHT31;61467;50.674;4.618;2023-05-16T16:46:05;17.45;38.88
72650;SHT31;61467;50.674;4.618;2023-05-16T16:48:40;17.06;39.28
72650;SHT31;61467;50.674;4.618;2023-05-16T16:51:19;17.06;39.54
72650;SHT31;61467;50.674;4.618;2023-05-16T16:53:58;16.41;40.55
72650;SHT31;61467;50.674;4.618;2023-05-16T16:56:32;16.41;40.86
72650;SHT31;61467;50.674;4.618;2023-05-16T16:59:18;17.03;40.55
72650;SHT31;61467;50.674;4.618;2023-05-16T17:02:03;16.97;40.10
72650;SHT31;61467;50.674;4.618;2023-05-16T17:04:43;16.56;40.92
72650;SHT31;61467;50.674;4.618;2023-05-16T17:10:02;16.69;42.63
72650;SHT31;61467;50.674;4.618;2023-05-16T17:12:39;16.49;42.37
72650;SHT31;61467;50.674;4.618;2023-05-16T17:15:14;16.89;42.18
72650;SHT31;61467;50.674;4.618;2023-05-16T17:17:51;17.03;41.88
72650;SHT31;61467;50.674;4.618;2023-05-16T17:20:30;17.21;41.69
72650;SHT31;61467;50.674;4.618;2023-05-16T17:23:15;16.82;41.69
72650;SHT31;61467;50.674;4.618;2023-05-16T17:25:55;16.71;41.12
72650;SHT31;61467;50.674;4.618;2023-05-16T17:28:40;16.47;42.52
72650;SHT31;61467;50.674;4.618;2023-05-16T17:31:10;16.72;42.66
72650;SHT31;61467;50.674;4.618;2023-05-16T17:33:50;16.05;43.90
72650;SHT31;61467;50.674;4.618;2023-05-16T17:36:33;15.98;44.24
72650;SHT31;61467;50.674;4.618;2023-05-16T17:39:16;16.01;42.95
72650;SHT31;61467;50.674;4.618;2023-05-16T17:41:50;16.21;43.46
72650;SHT31;61467;50.674;4.618;2023-05-16T17:44:30;16.52;44.55
72650;SHT31;61467;50.674;4.618;2023-05-16T17:47:19;16.35;43.17
72650;SHT31;61467;50.674;4.618;2023-05-16T17:50:05;15.98;44.39
72650;SHT31;61467;50.674;4.618;2023-05-16T17:52:58;15.93;45.10
72650;SHT31;61467;50.674;4.618;2023-05-16T17:55:49;15.98;46.26
72650;SHT31;61467;50.674;4.618;2023-05-16T17:58:40;16.01;45.53
72650;SHT31;61467;50.674;4.618;2023-05-16T18:01:16;15.69;44.73
72650;SHT31;61467;50.674;4.618;2023-05-16T18:03:55;15.43;45.61
72650;SHT31;61467;50.674;4.618;2023-05-16T18:06:36;15.62;45.18
72650;SHT31;61467;50.674;4.618;2023-05-16T18:09:13;15.67;44.90
72650;SHT31;61467;50.674;4.618;2023-05-16T18:11:53;15.16;46.33
72650;SHT31;61467;50.674;4.618;2023-05-16T18:14:37;15.50;46.00
72650;SHT31;61467;50.674;4.618;2023-05-16T18:17:38;15.12;46.60
72650;SHT31;61467;50.674;4.618;2023-05-16T18:20:32;15.13;46.43
72650;SHT31;61467;50.674;4.618;2023-05-16T18:23:28;15.43;49.64
72650;SHT31;61467;50.674;4.618;2023-05-16T18:32:02;15.93;45.88
72650;SHT31;61467;50.674;4.618;2023-05-16T18:34:57;15.49;45.98
72650;SHT31;61467;50.674;4.618;2023-05-16T18:37:50;15.39;46.90
72650;SHT31;61467;50.674;4.618;2023-05-16T18:40:47;15.11;46.94
72650;SHT31;61467;50.674;4.618;2023-05-16T18:43:23;14.98;47.44
72650;SHT31;61467;50.674;4.618;2023-05-16T18:46:17;14.89;47.74
72650;SHT31;61467;50.674;4.618;2023-05-16T18:49:06;15.05;48.18
72650;SHT31;61467;50.674;4.618;2023-05-16T18:52:26;15.11;47.82
72650;SHT31;61467;50.674;4.618;2023-05-16T18:55:06;15.12;48.17
72650;SHT31;61467;50.674;4.618;2023-05-16T18:57:55;15.16;48.30
72650;SHT31;61467;50.674;4.618;2023-05-16T19:00:40;15.08;48.26
72650;SHT31;61467;50.674;4.618;2023-05-16T19:03:25;14.75;49.40
72650;SHT31;61467;50.674;4.618;2023-05-16T19:09:03;14.91;49.42
72650;SHT31;61467;50.674;4.618;2023-05-16T19:11:33;14.71;49.82
72650;SHT31;61467;50.674;4.618;2023-05-16T19:14:01;14.77;50.15
72650;SHT31;61467;50.674;4.618;2023-05-16T19:16:31;14.75;49.98
72650;SHT31;61467;50.674;4.618;2023-05-16T19:19:08;14.78;50.65
72650;SHT31;61467;50.674;4.618;2023-05-16T19:21:47;14.75;50.11
72650;SHT31;61467;50.674;4.618;2023-05-16T19:28:05;14.80;51.33
72650;SHT31;61467;50.674;4.618;2023-05-16T19:31:02;14.84;51.00
72650;SHT31;61467;50.674;4.618;2023-05-16T19:33:44;14.77;50.99
72650;SHT31;61467;50.674;4.618;2023-05-16T19:36:32;14.70;51.11
72650;SHT31;61467;50.674;4.618;2023-05-16T19:39:05;14.71;51.78
72650;SHT31;61467;50.674;4.618;2023-05-16T19:41:56;14.77;52.40
72650;SHT31;61467;50.674;4.618;2023-05-16T19:44:37;14.13;53.05
72650;SHT31;61467;50.674;4.618;2023-05-16T19:47:31;14.34;52.92
72650;SHT31;61467;50.674;4.618;2023-05-16T19:50:12;14.45;53.18
72650;SHT31;61467;50.674;4.618;2023-05-16T19:52:49;14.41;52.94
72650;SHT31;61467;50.674;4.618;2023-05-16T19:55:32;14.27;53.24
72650;SHT31;61467;50.674;4.618;2023-05-16T19:58:00;14.32;53.97
72650;SHT31;61467;50.674;4.618;2023-05-16T20:03:37;14.34;53.93
72650;SHT31;61467;50.674;4.618;2023-05-16T20:06:16;14.38;54.11
72650;SHT31;61467;50.674;4.618;2023-05-16T20:08:46;14.23;54.42
72650;SHT31;61467;50.674;4.618;2023-05-16T20:11:40;14.27;54.53
72650;SHT31;61467;50.674;4.618;2023-05-16T20:14:25;14.27;54.70
72650;SHT31;61467;50.674;4.618;2023-05-16T20:17:11;14.23;55.14
72650;SHT31;61467;50.674;4.618;2023-05-16T20:19:47;14.30;55.38
72650;SHT31;61467;50.674;4.618;2023-05-16T20:22:32;14.05;55.33
72650;SHT31;61467;50.674;4.618;2023-05-16T20:25:10;14.22;55.31
72650;SHT31;61467;50.674;4.618;2023-05-16T20:30:47;14.34;55.29
72650;SHT31;61467;50.674;4.618;2023-05-16T20:33:27;14.20;55.69
72650;SHT31;61467;50.674;4.618;2023-05-16T20:36:16;14.05;55.67
72650;SHT31;61467;50.674;4.618;2023-05-16T20:38:44;14.12;55.78
72650;SHT31;61467;50.674;4.618;2023-05-16T20:41:23;14.08;56.48
72650;SHT31;61467;50.674;4.618;2023-05-16T20:44:10;14.09;56.89
72650;SHT31;61467;50.674;4.618;2023-05-16T20:46:49;13.98;56.92
72650;SHT31;61467;50.674;4.618;2023-05-16T20:49:29;13.79;57.63
72650;SHT31;61467;50.674;4.618;2023-05-16T20:52:10;13.78;57.82
72650;SHT31;61467;50.674;4.618;2023-05-16T20:54:38;13.64;58.44
72650;SHT31;61467;50.674;4.618;2023-05-16T20:57:15;13.72;58.60
72650;SHT31;61467;50.674;4.618;2023-05-16T20:59:50;13.58;58.93
72650;SHT31;61467;50.674;4.618;2023-05-16T21:02:24;13.61;59.33
72650;SHT31;61467;50.674;4.618;2023-05-16T21:05:06;13.68;59.28
72650;SHT31;61467;50.674;4.618;2023-05-16T21:07:47;13.62;59.81
72650;SHT31;61467;50.674;4.618;2023-05-16T21:10:36;13.62;60.07
72650;SHT31;61467;50.674;4.618;2023-05-16T21:13:28;13.64;60.01
72650;SHT31;61467;50.674;4.618;2023-05-16T21:16:33;13.59;60.19
72650;SHT31;61467;50.674;4.618;2023-05-16T21:19:30;13.54;60.39
72650;SHT31;61467;50.674;4.618;2023-05-16T21:22:29;13.55;60.38
72650;SHT31;61467;50.674;4.618;2023-05-16T21:25:33;13.51;60.83
72650;SHT31;61467;50.674;4.618;2023-05-16T21:28:30;13.50;60.89
72650;SHT31;61467;50.674;4.618;2023-05-16T21:31:37;13.35;61.19
72650;SHT31;61467;50.674;4.618;2023-05-16T21:34:33;13.34;61.46
72650;SHT31;61467;50.674;4.618;2023-05-16T21:37:38;13.15;62.42
72650;SHT31;61467;50.674;4.618;2023-05-16T21:43:31;13.08;62.66
72650;SHT31;61467;50.674;4.618;2023-05-16T21:46:28;13.07;62.82
72650;SHT31;61467;50.674;4.618;2023-05-16T21:49:32;12.69;63.86
72650;SHT31;61467;50.674;4.618;2023-05-16T21:55:35;12.63;64.32
72650;SHT31;61467;50.674;4.618;2023-05-16T21:58:33;12.34;65.33
72650;SHT31;61467;50.674;4.618;2023-05-16T22:27:48;12.41;65.05
72650;SHT31;61467;50.674;4.618;2023-05-16T22:30:54;12.31;65.51
72650;SHT31;61467;50.674;4.618;2023-05-16T22:33:46;12.22;65.64
72650;SHT31;61467;50.674;4.618;2023-05-16T22:40:09;12.10;66.19
72650;SHT31;61467;50.674;4.618;2023-05-16T22:43:17;12.18;66.06
72650;SHT31;61467;50.674;4.618;2023-05-16T22:46:22;12.18;66.12
72650;SHT31;61467;50.674;4.618;2023-05-16T22:49:26;12.21;65.91
72650;SHT31;61467;50.674;4.618;2023-05-16T22:52:36;12.17;65.82
72650;SHT31;61467;50.674;4.618;2023-05-16T22:55:39;12.14;65.97
72650;SHT31;61467;50.674;4.618;2023-05-16T23:01:45;12.12;66.06
72650;SHT31;61467;50.674;4.618;2023-05-16T23:07:52;12.14;66.08
72650;SHT31;61467;50.674;4.618;2023-05-16T23:10:47;12.10;66.13
72650;SHT31;61467;50.674;4.618;2023-05-16T23:13:36;12.04;66.10
72650;SHT31;61467;50.674;4.618;2023-05-16T23:16:51;11.99;66.46
72650;SHT31;61467;50.674;4.618;2023-05-16T23:22:52;11.91;66.52
72650;SHT31;61467;50.674;4.618;2023-05-16T23:31:42;11.71;67.09
72650;SHT31;61467;50.674;4.618;2023-05-16T23:37:42;11.74;67.00
72650;SHT31;61467;50.674;4.618;2023-05-16T23:40:46;11.64;67.46
72650;SHT31;61467;50.674;4.618;2023-05-16T23:43:46;11.64;67.47
72650;SHT31;61467;50.674;4.618;2023-05-16T23:46:41;11.63;67.41
72650;SHT31;61467;50.674;4.618;2023-05-16T23:49:24;11.60;67.58
72650;SHT31;61467;50.674;4.618;2023-05-16T23:52:24;11.62;67.38
72650;SHT31;61467;50.674;4.618;2023-05-16T23:55:22;11.63;67.43
